Time;durP1;ratioP1;P1;durP2;ratioP2;P2;SDS_P1;SDS_P2;PMS_P1;PMS_P2;Temp;Humidity;BMP_temperature;BMP_pressure;BME280_temperature;BME280_humidity;BME280_pressure;Samples;Min_cycle;Max_cycle;Signal;HPM_P1;HPM_P2
2021/12/08 00:00:47;;;;;;;8.88;3.22;;;5.80;99.90;;;;;;5050551;28;20024;-76
2021/12/08 00:03:14;;;;;;;2.70;2.50;;;5.80;99.90;;;;;;5050421;28;20439;-75
2021/12/08 00:05:41;;;;;;;3.30;2.60;;;5.70;99.90;;;;;;5048982;28;20261;-76
2021/12/08 00:08:09;;;;;;;3.13;2.58;;;5.70;99.90;;;;;;5050222;28;20438;-76
2021/12/08 00:13:07;;;;;;;6.00;2.25;;;5.80;99.90;;;;;;5050367;28;20139;-76
2021/12/08 00:15:39;;;;;;;9.43;3.00;;;5.80;99.90;;;;;;5049035;28;20171;-76
2021/12/08 00:18:07;;;;;;;4.10;2.85;;;5.80;99.90;;;;;;5050099;28;20400;-77
2021/12/08 00:20:34;;;;;;;4.72;2.80;;;5.70;99.90;;;;;;5050008;28;20041;-76
2021/12/08 00:23:01;;;;;;;3.13;1.80;;;5.70;99.90;;;;;;5049820;28;20025;-74
2021/12/08 00:25:28;;;;;;;4.82;1.95;;;5.70;99.90;;;;;;5050028;28;20021;-74
2021/12/08 00:27:54;;;;;;;2.10;1.30;;;5.80;99.90;;;;;;5048636;28;20419;-74
2021/12/08 00:30:19;;;;;;;4.88;2.00;;;5.80;99.90;;;;;;5050023;28;20039;-76
2021/12/08 00:32:46;;;;;;;4.00;2.45;;;5.80;99.90;;;;;;5048465;28;20499;-77
2021/12/08 00:35:13;;;;;;;4.68;2.17;;;5.80;99.90;;;;;;5049935;28;20052;-75
2021/12/08 00:37:38;;;;;;;;;;;5.80;99.90;;;;;;5048851;28;20488;-75
2021/12/08 00:40:08;;;;;;;3.85;2.20;;;5.80;99.90;;;;;;5049639;28;19909;-75
2021/12/08 00:42:34;;;;;;;10.32;3.30;;;5.70;99.90;;;;;;5049632;28;20442;-74
2021/12/08 00:45:00;;;;;;;7.13;2.75;;;5.70;99.90;;;;;;5049716;28;20036;-76
2021/12/08 00:47:26;;;;;;;3.72;2.28;;;5.70;99.90;;;;;;5049534;28;20037;-76
2021/12/08 00:49:52;;;;;;;1.75;1.60;;;5.70;99.90;;;;;;5049505;28;20025;-74
2021/12/08 00:52:19;;;;;;;4.65;2.30;;;5.70;99.90;;;;;;5048269;28;20044;-74
2021/12/08 00:54:44;;;;;;;8.30;3.35;;;5.70;99.90;;;;;;5049454;28;20081;-75
2021/12/08 00:57:10;;;;;;;3.42;1.90;;;5.70;99.90;;;;;;5049341;28;20029;-76
2021/12/08 00:59:37;;;;;;;1.77;1.67;;;5.70;99.90;;;;;;5048158;28;20085;-75
2021/12/08 01:02:04;;;;;;;2.30;1.50;;;5.70;99.90;;;;;;5049467;28;20025;-75
2021/12/08 01:04:34;;;;;;;4.00;2.40;;;5.70;99.90;;;;;;5047827;28;20071;-75
2021/12/08 01:07:01;;;;;;;3.50;2.30;;;5.70;99.90;;;;;;5049218;28;20040;-75
2021/12/08 01:09:27;;;;;;;2.20;2.00;;;5.60;99.90;;;;;;5047932;28;20028;-76
2021/12/08 01:11:55;;;;;;;;;;;5.60;99.90;;;;;;5048563;28;20041;-76
2021/12/08 01:14:21;;;;;;;2.97;1.50;;;5.60;99.90;;;;;;5049048;28;20287;-74
2021/12/08 01:16:47;;;;;;;3.60;2.13;;;5.60;99.90;;;;;;5048964;28;20029;-76
2021/12/08 01:19:13;;;;;;;2.50;2.25;;;5.60;99.90;;;;;;5048887;28;20048;-76
2021/12/08 01:21:39;;;;;;;3.85;2.05;;;5.60;99.90;;;;;;5031128;28;20391;-76
2021/12/08 01:24:05;;;;;;;2.45;1.88;;;5.60;99.90;;;;;;5048912;28;20029;-76
2021/12/08 01:26:31;;;;;;;1.50;1.40;;;5.60;99.90;;;;;;5048909;28;20037;-76
2021/12/08 01:28:57;;;;;;;6.20;1.83;;;5.70;99.90;;;;;;5047561;28;20108;-75
2021/12/08 01:31:23;;;;;;;;;;;5.70;99.90;;;;;;5049313;28;20120;-77
2021/12/08 01:33:50;;;;;;;2.47;1.85;;;5.70;99.90;;;;;;5048075;28;19970;-76
2021/12/08 01:36:16;;;;;;;4.10;1.77;;;5.70;99.90;;;;;;5048612;28;20491;-74
2021/12/08 01:38:42;;;;;;;;;;;5.70;99.90;;;;;;5049035;28;20032;-76
2021/12/08 01:41:08;;;;;;;1.70;1.60;;;5.60;99.90;;;;;;5047510;28;19908;-76
2021/12/08 01:45:56;;;;;;;2.40;2.20;;;5.60;99.90;;;;;;5048562;28;20060;-76
2021/12/08 01:46:28;;;;;;;2.55;2.35;;;5.60;99.90;;;;;;5048444;28;20043;-74
2021/12/08 01:48:54;;;;;;;1.80;1.70;;;5.50;99.90;;;;;;5048412;28;20061;-75
2021/12/08 01:51:20;;;;;;;2.20;2.00;;;5.50;99.90;;;;;;5047217;28;20095;-77
2021/12/08 01:53:51;;;;;;;1.70;1.60;;;5.50;99.90;;;;;;5030453;28;20048;-75
2021/12/08 01:56:19;;;;;;;3.25;1.70;;;5.50;99.90;;;;;;5048416;28;20021;-75
2021/12/08 01:58:45;;;;;;;5.35;2.72;;;5.50;99.90;;;;;;5047117;28;20033;-76
2021/12/08 02:01:15;;;;;;;1.83;1.60;;;5.50;99.90;;;;;;5046872;28;20025;-77
2021/12/08 02:03:42;;;;;;;2.78;2.30;;;5.50;99.90;;;;;;5048176;28;20148;-75
2021/12/08 02:06:09;;;;;;;3.05;2.85;;;5.50;99.90;;;;;;5046940;28;20029;-76
2021/12/08 02:08:37;;;;;;;2.65;2.40;;;5.50;99.90;;;;;;5048195;28;20024;-77
2021/12/08 02:11:05;;;;;;;4.22;3.63;;;5.40;99.90;;;;;;5048061;28;20033;-75
2021/12/08 02:13:37;;;;;;;5.45;5.05;;;5.30;99.90;;;;;;5048026;28;20079;-76
2021/12/08 02:16:06;;;;;;;3.80;3.47;;;5.20;99.90;;;;;;5048248;28;20013;-76
2021/12/08 02:18:32;;;;;;;5.28;4.45;;;5.20;99.90;;;;;;5047940;28;20506;-75
2021/12/08 02:20:59;;;;;;;4.03;2.70;;;5.20;99.90;;;;;;5029456;28;20077;-75
2021/12/08 02:23:26;;;;;;;4.43;2.88;;;5.10;99.90;;;;;;5045779;28;20051;-76
2021/12/08 02:25:53;;;;;;;5.07;4.78;;;5.10;99.90;;;;;;5047014;28;20396;-76
2021/12/08 02:28:19;;;;;;;;;;;5.10;99.90;;;;;;5047620;28;20025;-77
2021/12/08 02:49:24;;;;;;;4.70;4.40;;;4.90;99.90;;;;;;5046850;28;20468;-74
2021/12/08 02:51:52;;;;;;;5.78;5.38;;;4.80;99.90;;;;;;5045615;28;20072;-74
2021/12/08 02:54:19;;;;;;;5.50;5.10;;;4.80;99.90;;;;;;5046694;28;20029;-75
2021/12/08 02:56:45;;;;;;;7.15;6.75;;;4.80;99.90;;;;;;5046761;28;20024;-75
2021/12/08 02:59:11;;;;;;;5.72;5.38;;;4.80;99.90;;;;;;5046654;28;20533;-76
2021/12/08 03:01:38;;;;;;;5.45;5.15;;;4.80;99.90;;;;;;5046742;28;20087;-75
2021/12/08 03:04:05;;;;;;;3.75;3.45;;;4.80;99.90;;;;;;5046706;28;20024;-75
2021/12/08 03:06:31;;;;;;;6.20;5.80;;;4.90;99.90;;;;;;5046704;28;20025;-74
2021/12/08 03:08:57;;;;;;;5.80;5.50;;;4.90;99.90;;;;;;5046663;28;20037;-74
2021/12/08 03:11:24;;;;;;;4.30;3.90;;;4.90;99.90;;;;;;5045390;28;20658;-75
2021/12/08 03:14:11;;;;;;;5.18;4.88;;;5.00;99.90;;;;;;5045260;28;20029;-75
2021/12/08 03:16:44;;;;;;;6.65;6.25;;;5.00;99.90;;;;;;5046515;28;20033;-75
2021/12/08 03:19:09;;;;;;;5.00;4.60;;;5.00;99.90;;;;;;5004810;28;1158531;-73
2021/12/08 03:21:36;;;;;;;5.85;5.47;;;5.00;99.90;;;;;;5047592;28;20427;-75
2021/12/08 03:29:34;;;;;;;6.35;5.95;;;5.00;99.90;;;;;;5047406;28;20028;-74
2021/12/08 03:32:07;;;;;;;6.32;5.82;;;5.00;99.90;;;;;;5046134;28;20056;-75
2021/12/08 03:34:37;;;;;;;11.80;5.53;;;5.00;99.90;;;;;;5047242;28;20052;-74
2021/12/08 03:37:05;;;;;;;4.95;4.55;;;5.00;99.90;;;;;;5047099;28;20025;-74
2021/12/08 03:39:32;;;;;;;5.78;5.25;;;5.00;99.90;;;;;;5045865;28;20021;-75
2021/12/08 03:41:57;;;;;;;4.53;4.22;;;5.10;99.90;;;;;;5045971;28;20082;-74
2021/12/08 03:44:23;;;;;;;7.13;6.72;;;5.10;99.90;;;;;;5047155;28;20499;-74
2021/12/08 03:46:50;;;;;;;4.25;3.95;;;5.10;99.90;;;;;;5045680;28;20376;-75
2021/12/08 03:49:17;;;;;;;7.25;4.57;;;5.10;99.90;;;;;;5045596;28;20029;-75
2021/12/08 03:51:43;;;;;;;5.78;5.30;;;5.20;99.90;;;;;;5045755;28;20468;-74
2021/12/08 03:54:11;;;;;;;9.43;6.10;;;5.20;99.90;;;;;;5047126;28;20037;-76
2021/12/08 03:56:36;;;;;;;6.20;5.80;;;5.20;99.90;;;;;;5046456;28;20120;-75
2021/12/08 03:59:04;;;;;;;5.75;5.45;;;5.20;99.90;;;;;;5051189;28;20096;-75
2021/12/08 04:01:30;;;;;;;5.97;5.57;;;5.20;99.90;;;;;;5050583;28;20119;-76
2021/12/08 04:04:02;;;;;;;10.88;5.72;;;5.20;99.90;;;;;;5032612;28;20025;-75
2021/12/08 04:06:42;;;;;;;8.50;7.18;;;5.20;99.90;;;;;;5049325;28;20083;-76
2021/12/08 04:09:24;;;;;;;8.65;8.15;;;5.20;99.90;;;;;;5050483;28;20045;-76
2021/12/08 04:11:49;;;;;;;5.22;4.93;;;5.20;99.90;;;;;;5050380;28;20109;-76
2021/12/08 04:14:18;;;;;;;6.25;5.88;;;5.20;99.90;;;;;;5049047;28;20112;-75
2021/12/08 04:16:53;;;;;;;6.80;5.82;;;5.20;99.90;;;;;;5050210;28;20108;-75
2021/12/08 04:19:19;;;;;;;5.57;5.28;;;5.20;99.90;;;;;;5048719;28;20052;-76
2021/12/08 04:21:49;;;;;;;4.78;4.13;;;5.20;99.90;;;;;;5048909;28;20537;-76
2021/12/08 04:24:15;;;;;;;4.45;4.15;;;5.20;99.90;;;;;;5050180;28;20028;-74
2021/12/08 04:26:49;;;;;;;;;;;5.20;99.90;;;;;;5049193;28;20041;-75
2021/12/08 04:29:16;;;;;;;4.93;4.63;;;5.20;99.90;;;;;;5050190;28;19904;-75
2021/12/08 04:31:43;;;;;;;5.50;5.10;;;5.20;99.90;;;;;;5048600;28;20029;-74
2021/12/08 04:34:18;;;;;;;4.45;4.15;;;5.10;99.90;;;;;;5050241;28;20029;-75
2021/12/08 04:36:48;;;;;;;5.45;4.95;;;5.10;99.90;;;;;;5048537;28;20028;-75
2021/12/08 04:39:25;;;;;;;5.38;5.07;;;5.20;99.90;;;;;;5049883;28;20372;-76
2021/12/08 04:41:58;;;;;;;4.95;4.65;;;5.10;99.90;;;;;;5048461;28;20060;-75
2021/12/08 04:44:37;;;;;;;5.40;5.00;;;5.20;99.90;;;;;;5048701;28;20049;-75
2021/12/08 04:52:52;;;;;;;6.13;5.72;;;5.20;99.90;;;;;;5049219;28;20032;-75
2021/12/08 05:09:24;;;;;;;5.20;4.80;;;5.30;99.90;;;;;;5048412;28;20104;-75
2021/12/08 05:12:01;;;;;;;15.32;6.57;;;5.30;99.90;;;;;;5047863;28;20082;-74
2021/12/08 05:14:31;;;;;;;7.80;5.30;;;5.30;99.90;;;;;;5049323;28;20024;-75
2021/12/08 05:17:21;;;;;;;5.70;5.30;;;5.30;99.90;;;;;;5047747;28;20124;-76
2021/12/08 05:19:50;;;;;;;7.13;6.68;;;5.30;99.90;;;;;;5046780;28;20045;-75
2021/12/08 05:22:33;;;;;;;4.38;4.07;;;5.30;99.90;;;;;;5048782;28;20025;-75
2021/12/08 05:25:03;;;;;;;5.35;5.00;;;5.30;99.90;;;;;;5047724;28;20028;-75
2021/12/08 05:27:44;;;;;;;5.35;5.05;;;5.30;99.90;;;;;;5049387;28;20132;-77
2021/12/08 05:30:44;;;;;;;4.68;4.38;;;5.30;99.90;;;;;;5047649;28;20529;-75
2021/12/08 05:33:12;;;;;;;5.35;4.95;;;5.30;99.90;;;;;;5047597;28;20041;-75
2021/12/08 05:35:39;;;;;;;5.32;4.93;;;5.30;99.90;;;;;;5048768;28;20083;-75
2021/12/08 05:38:06;;;;;;;4.35;3.90;;;5.40;99.90;;;;;;5047424;28;20051;-75
2021/12/08 05:40:53;;;;;;;3.75;3.45;;;5.30;99.90;;;;;;5047403;28;20380;-76
2021/12/08 05:43:20;;;;;;;2.88;2.67;;;5.30;99.90;;;;;;5048695;28;20021;-75
2021/12/08 05:45:48;;;;;;;4.45;4.15;;;5.30;99.90;;;;;;5048669;28;20063;-76
2021/12/08 05:48:14;;;;;;;4.05;3.65;;;5.30;99.90;;;;;;5047156;28;20108;-75
2021/12/08 05:50:46;;;;;;;6.82;5.05;;;5.30;99.90;;;;;;5048399;28;20032;-75
2021/12/08 05:53:13;;;;;;;14.30;3.25;;;5.30;99.90;;;;;;5047009;28;20021;-77
2021/12/08 05:55:41;;;;;;;2.58;2.38;;;5.30;99.90;;;;;;5048386;28;20433;-78
2021/12/08 05:58:07;;;;;;;3.05;2.80;;;5.40;99.90;;;;;;5048319;28;20107;-74
2021/12/08 06:00:39;;;;;;;6.50;3.28;;;5.40;99.90;;;;;;5048274;28;20034;-76
2021/12/08 06:03:05;;;;;;;2.95;2.72;;;5.40;99.90;;;;;;5048332;28;20113;-74
2021/12/08 06:05:31;;;;;;;3.40;3.10;;;5.40;99.90;;;;;;5048331;28;20526;-75
2021/12/08 06:07:58;;;;;;;6.80;2.90;;;5.50;99.90;;;;;;5048316;28;20041;-75
2021/12/08 06:10:31;;;;;;;3.13;2.45;;;5.50;99.90;;;;;;5048173;28;20032;-76
2021/12/08 06:12:58;;;;;;;4.45;2.55;;;5.50;99.90;;;;;;5046945;28;20021;-76
2021/12/08 06:15:24;;;;;;;6.28;2.70;;;5.60;99.90;;;;;;5048053;28;20047;-75
2021/12/08 06:17:50;;;;;;;2.65;2.45;;;5.60;99.90;;;;;;5047939;28;20475;-77
2021/12/08 06:20:17;;;;;;;2.88;2.60;;;5.60;99.90;;;;;;5047634;28;20098;-75
2021/12/08 06:22:46;;;;;;;2.00;1.60;;;5.60;99.90;;;;;;5047893;28;20116;-74
2021/12/08 06:25:14;;;;;;;2.63;1.92;;;5.60;99.90;;;;;;5048284;28;20366;-77
2021/12/08 06:27:40;;;;;;;1.77;1.67;;;5.60;99.90;;;;;;5046508;28;20029;-75
2021/12/08 06:30:08;;;;;;;2.13;1.98;;;5.60;99.90;;;;;;5047886;28;20053;-75
2021/12/08 06:32:34;;;;;;;3.90;2.80;;;5.50;99.90;;;;;;5047584;28;20044;-76
2021/12/08 06:35:01;;;;;;;4.35;2.55;;;5.50;99.90;;;;;;5047738;28;20033;-77
2021/12/08 06:37:32;;;;;;;4.07;1.95;;;5.40;99.90;;;;;;5029771;28;20525;-74
2021/12/08 06:40:21;;;;;;;3.35;1.85;;;5.40;99.90;;;;;;5046307;28;20028;-74
2021/12/08 06:42:51;;;;;;;1.70;1.60;;;5.30;99.90;;;;;;5045681;28;20039;-75
2021/12/08 06:45:21;;;;;;;1.85;1.67;;;5.30;99.90;;;;;;5047659;28;20100;-77
2021/12/08 06:47:50;;;;;;;5.95;1.40;;;5.30;99.90;;;;;;5047610;28;20017;-76
2021/12/08 06:50:24;;;;;;;6.47;1.98;;;5.30;99.90;;;;;;5046474;28;20044;-77
2021/12/08 06:52:51;;;;;;;1.13;1.10;;;5.30;99.90;;;;;;5046193;28;20029;-77
2021/12/08 06:55:18;;;;;;;2.05;1.88;;;5.30;99.90;;;;;;5046271;28;20032;-77
2021/12/08 06:58:14;;;;;;;2.92;1.60;;;5.30;99.90;;;;;;5047277;28;20064;-77
2021/12/08 07:01:28;;;;;;;1.88;1.60;;;5.40;99.90;;;;;;5045201;28;20038;-76
2021/12/08 07:06:46;;;;;;;7.45;1.27;;;5.50;99.90;;;;;;5047649;28;20035;-76
2021/12/08 07:09:28;;;;;;;2.53;1.88;;;5.50;99.90;;;;;;5046319;28;20483;-75
2021/12/08 07:11:58;;;;;;;3.05;2.25;;;5.50;99.90;;;;;;5047516;28;20032;-76
2021/12/08 07:14:27;;;;;;;1.40;1.30;;;5.60;99.90;;;;;;5047303;28;20048;-77
2021/12/08 07:16:56;;;;;;;3.53;2.60;;;5.50;99.90;;;;;;5047302;28;20051;-77
2021/12/08 07:19:39;;;;;;;5.47;3.20;;;5.60;99.90;;;;;;5027244;28;20069;-77
2021/12/08 07:22:07;;;;;;;2.20;1.52;;;5.50;99.90;;;;;;5046323;28;20036;-77
2021/12/08 07:24:37;;;;;;;5.13;2.63;;;5.50;99.90;;;;;;5047247;28;20104;-77
2021/12/08 07:27:15;;;;;;;2.17;1.52;;;5.50;99.90;;;;;;5047506;28;20089;-76
2021/12/08 07:29:44;;;;;;;1.55;1.45;;;5.50;99.90;;;;;;5047306;28;20453;-76
2021/12/08 07:32:16;;;;;;;2.70;1.35;;;5.50;99.90;;;;;;5048103;28;20060;-75
2021/12/08 07:34:43;;;;;;;2.60;1.30;;;5.40;99.90;;;;;;5050683;28;20595;-76
2021/12/08 07:37:16;;;;;;;1.75;1.48;;;5.40;99.90;;;;;;5051235;28;20032;-74
2021/12/08 07:39:48;;;;;;;7.25;2.13;;;5.30;99.90;;;;;;5050882;28;20479;-76
2021/12/08 07:42:26;;;;;;;2.17;1.27;;;5.30;99.90;;;;;;5049921;28;20515;-77
2021/12/08 07:44:57;;;;;;;0.95;0.80;;;5.40;99.90;;;;;;5051452;28;20092;-77
2021/12/08 07:47:26;;;;;;;11.50;1.95;;;5.40;99.90;;;;;;5049611;28;20116;-77
2021/12/08 07:50:23;;;;;;;5.15;2.72;;;5.40;99.90;;;;;;5050591;28;20037;-75
2021/12/08 07:52:52;;;;;;;0.80;0.65;;;5.40;99.90;;;;;;5039988;28;20043;-76
2021/12/08 07:55:31;;;;;;;0.90;0.85;;;5.40;99.90;;;;;;5050664;28;20029;-76
2021/12/08 07:57:58;;;;;;;0.95;0.85;;;5.40;99.90;;;;;;5050389;28;20160;-79
2021/12/08 08:00:40;;;;;;;2.53;1.70;;;5.50;99.90;;;;;;5050526;28;20028;-76
2021/12/08 08:03:07;;;;;;;1.25;1.00;;;5.50;99.90;;;;;;5050161;28;20494;-76
2021/12/08 08:05:33;;;;;;;4.72;1.55;;;5.50;99.90;;;;;;5050168;28;20021;-75
2021/12/08 08:08:03;;;;;;;5.70;1.13;;;5.50;99.90;;;;;;5050213;28;20052;-76
2021/12/08 08:10:35;;;;;;;2.50;1.52;;;5.50;99.90;;;;;;5050458;28;20067;-76
2021/12/08 08:13:07;;;;;;;3.38;0.50;;;5.60;99.90;;;;;;5050305;28;20445;-75
2021/12/08 08:15:37;;;;;;;2.50;1.65;;;5.60;99.90;;;;;;5050348;28;20493;-73
2021/12/08 08:18:08;;;;;;;9.95;1.45;;;5.60;99.90;;;;;;5048861;28;20044;-76
2021/12/08 08:20:38;;;;;;;1.55;1.27;;;5.60;99.90;;;;;;5047846;28;20491;-77
2021/12/08 08:23:04;;;;;;;0.40;0.40;;;5.60;99.90;;;;;;5050072;28;20029;-75
2021/12/08 08:25:34;;;;;;;;;;;5.60;99.90;;;;;;5049268;28;20040;-75
2021/12/08 08:28:00;;;;;;;11.60;1.30;;;5.50;99.90;;;;;;5048496;28;19910;-75
2021/12/08 08:30:31;;;;;;;2.22;0.70;;;5.50;99.90;;;;;;5050323;28;20068;-76
2021/12/08 08:32:58;;;;;;;2.88;1.50;;;5.50;99.90;;;;;;5050160;28;20025;-77
2021/12/08 08:35:33;;;;;;;1.63;1.48;;;5.50;99.90;;;;;;5048500;28;20092;-74
2021/12/08 08:38:04;;;;;;;6.35;1.38;;;5.40;99.90;;;;;;5049664;28;20379;-75
2021/12/08 08:40:35;;;;;;;2.67;1.45;;;5.50;99.90;;;;;;5047905;28;20472;-76
2021/12/08 08:43:01;;;;;;;4.75;1.05;;;5.40;99.90;;;;;;5049720;28;20029;-76
2021/12/08 08:45:45;;;;;;;3.22;1.63;;;5.50;99.90;;;;;;5048344;28;20017;-75
2021/12/08 08:48:18;;;;;;;10.77;1.70;;;5.50;99.90;;;;;;5049306;28;20037;-75
2021/12/08 08:50:51;;;;;;;3.47;1.40;;;5.50;99.90;;;;;;5049614;28;20052;-74
2021/12/08 08:53:20;;;;;;;3.28;1.50;;;5.50;99.90;;;;;;5049734;28;20043;-75
2021/12/08 08:55:57;;;;;;;2.58;1.25;;;5.50;99.90;;;;;;5049137;28;20448;-75
2021/12/08 08:58:26;;;;;;;8.23;1.30;;;5.50;99.90;;;;;;5049747;28;20335;-75
2021/12/08 09:01:02;;;;;;;4.68;1.70;;;5.50;99.90;;;;;;5048390;28;20023;-76
2021/12/08 09:03:32;;;;;;;3.05;0.98;;;5.50;99.90;;;;;;5049773;28;20024;-76
2021/12/08 09:06:08;;;;;;;8.30;1.67;;;5.50;99.90;;;;;;5049723;28;20021;-77
2021/12/08 09:08:36;;;;;;;7.30;1.70;;;5.50;99.90;;;;;;5049297;28;20113;-77
2021/12/08 09:11:15;;;;;;;4.15;1.58;;;5.50;99.90;;;;;;5049023;28;20139;-75
2021/12/08 09:13:54;;;;;;;4.35;1.80;;;5.50;99.90;;;;;;5048353;28;20075;-71
2021/12/08 09:16:42;;;;;;;11.70;1.73;;;5.60;99.90;;;;;;5048628;28;20020;-78
2021/12/08 09:19:32;;;;;;;2.97;1.42;;;5.60;99.90;;;;;;5047190;28;20025;-76
2021/12/08 09:22:10;;;;;;;2.60;1.13;;;5.60;99.90;;;;;;5047302;28;20489;-76
2021/12/08 09:24:51;;;;;;;5.07;2.00;;;5.70;99.90;;;;;;5048582;28;20100;-76
2021/12/08 09:27:27;;;;;;;1.80;1.13;;;5.70;99.90;;;;;;5047306;28;20036;-77
2021/12/08 09:29:58;;;;;;;10.48;2.70;;;5.70;99.90;;;;;;5048160;28;20223;-75
2021/12/08 09:32:32;;;;;;;3.78;1.35;;;5.70;99.90;;;;;;5048474;28;20506;-76
2021/12/08 09:35:05;;;;;;;2.17;0.85;;;5.70;99.90;;;;;;5047043;28;20550;-77
2021/12/08 09:37:40;;;;;;;6.50;1.40;;;5.80;99.90;;;;;;5046952;28;20029;-77
2021/12/08 09:40:22;;;;;;;6.30;1.20;;;5.80;99.90;;;;;;5048392;28;20025;-77
2021/12/08 09:42:57;;;;;;;6.63;1.73;;;5.80;99.90;;;;;;5048173;28;20036;-76
2021/12/08 09:45:31;;;;;;;9.82;3.28;;;5.80;99.90;;;;;;5048321;28;20357;-76
2021/12/08 09:48:01;;;;;;;2.42;1.63;;;5.90;99.90;;;;;;5048070;28;20357;-76
2021/12/08 09:50:26;;;;;;;9.00;2.60;;;5.90;99.90;;;;;;5046859;28;20379;-75
2021/12/08 09:52:52;;;;;;;6.13;2.03;;;5.90;99.90;;;;;;5048086;28;20179;-76
2021/12/08 09:55:18;;;;;;;15.98;2.92;;;6.00;99.90;;;;;;5046087;28;20037;-76
2021/12/08 09:57:45;;;;;;;6.10;2.60;;;6.00;99.90;;;;;;5030025;28;20467;-76
2021/12/08 10:00:35;;;;;;;14.25;2.22;;;6.00;99.90;;;;;;5048004;28;20021;-73
2021/12/08 10:03:03;;;;;;;3.10;1.48;;;6.00;99.80;;;;;;5047591;28;20028;-74
2021/12/08 10:05:32;;;;;;;13.57;1.77;;;6.10;99.90;;;;;;5047887;28;20032;-74
2021/12/08 10:08:01;;;;;;;10.32;2.33;;;6.10;99.70;;;;;;5047674;28;20017;-76
2021/12/08 10:10:29;;;;;;;5.70;2.38;;;6.10;99.80;;;;;;5046406;28;20021;-76
2021/12/08 10:12:55;;;;;;;6.90;3.03;;;6.20;99.60;;;;;;5048248;28;20100;-75
2021/12/08 10:15:23;;;;;;;2.60;0.95;;;6.20;99.60;;;;;;5046509;28;20064;-77
2021/12/08 10:17:51;;;;;;;9.65;1.73;;;6.30;99.60;;;;;;5046926;28;20032;-78
2021/12/08 10:20:26;;;;;;;3.67;1.45;;;6.40;99.30;;;;;;5040113;28;20076;-77
2021/12/08 10:23:11;;;;;;;1.90;1.00;;;6.40;99.10;;;;;;5038152;28;20031;-74
2021/12/08 10:25:48;;;;;;;9.60;1.60;;;6.50;99.00;;;;;;5039309;28;20677;-78
2021/12/08 10:28:17;;;;;;;5.03;1.50;;;6.50;98.80;;;;;;5039589;28;20031;-78
2021/12/08 10:31:15;;;;;;;6.07;2.53;;;6.60;98.80;;;;;;5040100;28;20357;-77
2021/12/08 10:34:01;;;;;;;4.22;1.13;;;6.70;98.70;;;;;;5040056;28;20410;-77
2021/12/08 10:36:55;;;;;;;3.00;0.90;;;6.90;98.50;;;;;;5033202;28;20531;-73
2021/12/08 10:39:27;;;;;;;6.05;1.27;;;7.10;98.40;;;;;;5037751;28;20044;-73
2021/12/08 10:42:01;;;;;;;6.05;1.40;;;7.20;97.80;;;;;;5045848;28;20100;-77
2021/12/08 10:45:23;;;;;;;3.13;1.33;;;7.20;97.60;;;;;;5036041;28;20052;-77
2021/12/08 10:47:27;;;;;;;8.00;1.38;;;7.30;97.20;;;;;;5034364;28;20614;-78
2021/12/08 10:55:21;;;;;;;12.38;1.63;;;7.10;96.60;;;;;;5036851;28;20041;-79
2021/12/08 10:57:50;;;;;;;11.20;1.88;;;7.00;96.70;;;;;;5028146;28;20392;-78
2021/12/08 11:00:22;;;;;;;4.35;2.55;;;7.00;96.80;;;;;;5039302;28;20095;-81
2021/12/08 11:03:00;;;;;;;7.93;1.40;;;7.00;96.60;;;;;;5039182;28;20032;-81
2021/12/08 11:05:26;;;;;;;15.77;1.48;;;7.00;96.60;;;;;;5045212;28;20067;-79
2021/12/08 11:08:00;;;;;;;;;;;7.10;96.50;;;;;;5047767;28;20018;-78
2021/12/08 11:10:26;;;;;;;7.13;1.70;;;7.10;96.40;;;;;;5053715;28;19911;-77
2021/12/08 11:12:55;;;;;;;8.38;2.05;;;7.20;96.40;;;;;;5049216;28;20026;-79
2021/12/08 11:15:23;;;;;;;11.85;1.52;;;7.20;96.50;;;;;;5036378;28;20800;-79
2021/12/08 11:18:10;;;;;;;6.70;1.77;;;7.20;96.50;;;;;;5035995;28;20032;-80
2021/12/08 11:20:42;;;;;;;6.75;1.00;;;7.30;96.60;;;;;;5033375;28;20049;-81
2021/12/08 11:23:10;;;;;;;13.70;1.85;;;7.40;96.20;;;;;;5039466;28;20024;-78
2021/12/08 11:25:40;;;;;;;1.65;0.88;;;7.50;96.10;;;;;;5047593;28;20353;-77
2021/12/08 11:28:29;;;;;;;4.50;0.70;;;7.50;95.90;;;;;;5035018;28;20065;-78
2021/12/08 11:31:06;;;;;;;6.68;1.88;;;7.60;95.60;;;;;;5037182;28;20025;-77
2021/12/08 11:33:41;;;;;;;15.98;2.45;;;7.70;95.60;;;;;;5031723;28;20449;-73
2021/12/08 11:36:16;;;;;;;6.22;1.45;;;7.80;95.40;;;;;;5048540;28;20037;-78
2021/12/08 11:38:49;;;;;;;6.60;1.27;;;7.90;95.40;;;;;;5037736;28;20025;-76
2021/12/08 11:41:35;;;;;;;4.20;1.77;;;8.00;94.90;;;;;;5038177;28;20072;-79
2021/12/08 11:44:06;;;;;;;5.53;1.50;;;8.00;94.60;;;;;;5039888;28;20025;-76
2021/12/08 11:46:37;;;;;;;10.68;2.03;;;8.00;94.30;;;;;;5050524;28;20025;-76
2021/12/08 11:49:12;;;;;;;8.88;2.80;;;7.90;94.00;;;;;;5042610;28;20094;-77
2021/12/08 11:51:56;;;;;;;4.05;2.33;;;7.90;93.90;;;;;;5023657;28;20029;-76
2021/12/08 11:54:33;;;;;;;5.50;1.25;;;7.80;93.70;;;;;;5035323;28;20035;-73
2021/12/08 11:57:10;;;;;;;6.55;2.35;;;7.80;93.80;;;;;;5041364;28;20028;-75
2021/12/08 11:59:47;;;;;;;3.03;1.00;;;7.80;93.90;;;;;;5035347;28;20128;-75
2021/12/08 12:02:14;;;;;;;5.00;1.90;;;7.70;93.70;;;;;;5042579;28;20363;-75
2021/12/08 12:04:42;;;;;;;3.17;1.17;;;7.80;93.50;;;;;;5044147;28;20133;-77
2021/12/08 12:07:13;;;;;;;5.50;1.17;;;7.80;93.30;;;;;;5051598;28;20112;-75
2021/12/08 12:09:40;;;;;;;6.00;1.20;;;7.70;93.10;;;;;;5050262;28;20040;-74
2021/12/08 12:12:06;;;;;;;5.95;1.88;;;7.70;93.10;;;;;;5050224;28;20020;-75
2021/12/08 12:14:32;;;;;;;;;;;7.80;93.10;;;;;;5050533;28;20146;-75
2021/12/08 12:16:58;;;;;;;1.65;1.17;;;7.80;92.90;;;;;;5049571;28;19931;-75
2021/12/08 12:19:27;;;;;;;1.25;0.55;;;7.80;93.10;;;;;;5048342;28;20029;-73
2021/12/08 12:22:31;;;;;;;4.30;1.77;;;7.80;92.80;;;;;;5045693;28;20052;-75
2021/12/08 12:25:27;;;;;;;1.30;0.70;;;7.80;92.70;;;;;;5041011;28;20030;-74
2021/12/08 12:28:10;;;;;;;1.45;1.10;;;7.80;92.40;;;;;;5021132;28;20113;-77
2021/12/08 12:30:51;;;;;;;13.05;1.25;;;7.80;92.40;;;;;;5029906;28;20040;-75
2021/12/08 12:33:20;;;;;;;3.42;1.25;;;8.00;92.40;;;;;;5030574;28;20531;-75
2021/12/08 12:35:57;;;;;;;4.15;0.77;;;8.00;92.00;;;;;;5030938;28;20620;-75
2021/12/08 12:38:37;;;;;;;1.60;0.55;;;8.10;91.90;;;;;;5030896;28;20479;-73
2021/12/08 12:41:06;;;;;;;1.33;0.70;;;8.10;91.70;;;;;;5030967;28;20029;-74
2021/12/08 12:43:38;;;;;;;4.82;0.70;;;8.00;91.40;;;;;;5031878;28;20101;-73
2021/12/08 12:46:23;;;;;;;3.33;1.45;;;8.00;91.30;;;;;;5040659;28;20371;-74
2021/12/08 12:48:52;;;;;;;9.68;1.65;;;8.10;90.70;;;;;;5043744;28;20029;-74
2021/12/08 12:51:19;;;;;;;11.18;2.78;;;8.00;90.80;;;;;;5039444;28;20021;-72
2021/12/08 12:53:54;;;;;;;8.52;1.20;;;8.10;90.70;;;;;;5041312;28;20009;-75
2021/12/08 12:56:50;;;;;;;1.20;0.68;;;8.10;90.60;;;;;;5039571;28;20025;-74
2021/12/08 12:59:20;;;;;;;2.65;1.27;;;8.10;90.50;;;;;;5044761;28;20025;-75
2021/12/08 13:02:05;;;;;;;1.52;0.60;;;8.10;90.30;;;;;;5038287;28;20325;-74
2021/12/08 13:04:35;;;;;;;6.85;0.82;;;8.10;90.20;;;;;;5039969;28;20034;-75
2021/12/08 13:07:02;;;;;;;6.07;0.93;;;8.10;90.20;;;;;;5021710;28;20032;-73
2021/12/08 13:09:53;;;;;;;1.98;0.98;;;8.10;90.00;;;;;;5042044;28;20032;-79
2021/12/08 13:12:56;;;;;;;8.90;2.10;;;8.10;90.10;;;;;;5039862;28;20124;-76
2021/12/08 13:15:27;;;;;;;3.83;0.93;;;8.10;89.80;;;;;;5038082;28;20017;-76
2021/12/08 13:18:23;;;;;;;4.05;1.67;;;8.20;89.90;;;;;;5037411;28;20018;-76
2021/12/08 13:20:59;;;;;;;8.15;2.20;;;8.10;89.80;;;;;;5034758;28;20048;-76
2021/12/08 13:23:31;;;;;;;1.97;1.10;;;8.10;89.30;;;;;;5016528;28;20076;-76
2021/12/08 13:26:08;;;;;;;16.23;1.00;;;8.10;88.60;;;;;;5044144;28;20091;-75
2021/12/08 13:29:04;;;;;;;3.33;1.23;;;8.00;88.60;;;;;;5039135;28;20033;-77
2021/12/08 13:31:38;;;;;;;6.43;1.98;;;8.00;88.30;;;;;;5043571;28;20029;-77
2021/12/08 13:34:09;;;;;;;1.60;0.75;;;7.90;88.40;;;;;;5036787;28;20029;-77
2021/12/08 13:36:52;;;;;;;1.60;0.88;;;7.80;88.90;;;;;;5037873;28;20064;-77
2021/12/08 13:39:39;;;;;;;5.53;1.05;;;7.70;88.90;;;;;;5046020;28;20025;-77
2021/12/08 13:42:11;;;;;;;3.67;1.05;;;7.60;89.20;;;;;;5040661;28;20053;-78
2021/12/08 13:44:41;;;;;;;2.35;0.65;;;7.60;89.70;;;;;;5032989;28;20087;-77
2021/12/08 13:47:37;;;;;;;7.03;1.80;;;7.60;89.90;;;;;;5035944;28;20419;-74
2021/12/08 13:50:10;;;;;;;5.05;1.02;;;7.50;90.00;;;;;;5037617;28;20044;-75
2021/12/08 13:52:39;;;;;;;5.15;2.58;;;7.50;90.00;;;;;;5038490;28;20339;-76
2021/12/08 13:55:08;;;;;;;1.67;1.10;;;7.50;90.10;;;;;;5041943;28;20099;-76
2021/12/08 13:57:40;;;;;;;5.55;1.50;;;7.50;90.10;;;;;;5041970;28;20029;-76
2021/12/08 14:00:37;;;;;;;7.43;1.60;;;7.60;90.10;;;;;;5043895;28;20017;-74
2021/12/08 14:03:05;;;;;;;13.10;1.58;;;7.60;90.20;;;;;;5037288;28;20124;-74
2021/12/08 14:05:33;;;;;;;1.75;0.88;;;7.70;90.30;;;;;;5040135;28;20017;-77
2021/12/08 14:08:07;;;;;;;0.55;0.47;;;7.70;90.20;;;;;;5045814;28;20074;-76
2021/12/08 14:10:42;;;;;;;4.15;0.90;;;7.80;90.00;;;;;;5043266;28;20048;-76
2021/12/08 14:13:22;;;;;;;5.82;1.52;;;7.80;90.00;;;;;;5040041;28;20029;-76
2021/12/08 14:15:52;;;;;;;6.70;1.83;;;7.80;89.80;;;;;;5043411;28;20463;-75
2021/12/08 14:18:27;;;;;;;1.75;1.15;;;7.80;89.90;;;;;;5047003;28;20025;-76